Time;durP1;ratioP1;P1;durP2;ratioP2;P2;SDS_P1;SDS_P2;PMS_P1;PMS_P2;Temp;Humidity;BMP_temperature;BMP_pressure;BME280_temperature;BME280_humidity;BME280_pressure;Samples;Min_cycle;Max_cycle;Signal;HPM_P1;HPM_P2
2022/04/15 00:00:01;;;;;;;0.50;0.50;;;22.40;41.20;;;23.57;34.80;102278.38;5053691;28;20192;-40
2022/04/15 00:02:28;;;;;;;0.60;0.60;;;22.40;41.20;;;23.57;35.10;102275.69;5038175;28;20205;-40
2022/04/15 00:04:57;;;;;;;0.50;0.50;;;22.40;41.20;;;23.56;34.75;102288.28;5041852;28;20679;-40
2022/04/15 00:07:24;;;;;;;0.60;0.60;;;22.40;41.20;;;23.56;34.74;102277.53;5040383;28;20277;-38
2022/04/15 00:09:52;;;;;;;0.50;0.50;;;22.40;41.10;;;23.56;34.90;102282.09;5044016;28;20225;-38
2022/04/15 00:12:27;;;;;;;0.77;0.57;;;22.40;41.10;;;23.56;34.68;102277.53;5055818;28;20224;-40
2022/04/15 00:14:55;;;;;;;0.60;0.60;;;22.40;41.10;;;23.56;34.71;102282.09;5051812;28;20186;-39
2022/04/15 00:17:24;;;;;;;0.50;0.50;;;22.40;41.10;;;23.55;34.96;102280.47;5052669;28;20224;-39
2022/04/15 00:19:51;;;;;;;0.60;0.60;;;22.40;41.10;;;23.57;34.73;102283.75;5050298;28;20546;-39
2022/04/15 00:22:19;;;;;;;0.50;0.50;;;22.40;41.10;;;23.56;34.78;102276.72;5037316;28;20257;-39
2022/04/15 00:24:46;;;;;;;0.53;0.53;;;22.40;41.00;;;23.55;34.87;102285.84;5043944;28;20198;-39
2022/04/15 00:27:15;;;;;;;0.50;0.50;;;22.40;41.10;;;23.56;34.66;102276.72;5052250;28;20217;-39
2022/04/15 00:29:42;;;;;;;0.53;0.53;;;22.40;41.00;;;23.55;34.79;102280.47;5050052;28;20571;-39
2022/04/15 00:32:10;;;;;;;0.60;0.60;;;22.40;41.00;;;23.55;34.78;102278.59;5034176;28;20697;-39
2022/04/15 00:34:38;;;;;;;0.50;0.50;;;22.40;41.00;;;23.55;34.71;102275.09;5035680;28;20232;-39
2022/04/15 00:37:05;;;;;;;0.60;0.60;;;22.40;40.90;;;23.55;34.60;102269.72;5047789;28;20210;-39
2022/04/15 00:39:35;;;;;;;0.50;0.50;;;22.40;41.00;;;23.54;34.74;102273.44;5033915;28;20651;-39
2022/04/15 00:42:03;;;;;;;0.70;0.70;;;22.40;40.90;;;23.54;34.35;102278.81;5052880;28;20192;-39
2022/04/15 00:44:30;;;;;;;0.70;0.70;;;22.40;40.90;;;23.54;34.55;102273.44;5052507;28;20223;-39
2022/04/15 00:46:57;;;;;;;0.50;0.50;;;22.40;40.90;;;23.53;34.26;102279.88;5052449;28;20205;-40
2022/04/15 00:49:25;;;;;;;0.50;0.50;;;22.40;40.80;;;23.53;34.77;102274.50;5044065;28;20578;-39
2022/04/15 00:51:55;;;;;;;0.60;0.60;;;22.40;40.80;;;23.53;34.55;102282.56;5049370;28;20202;-39
2022/04/15 00:54:29;;;;;;;0.40;0.40;;;22.40;40.80;;;23.53;34.53;102283.34;5037094;28;20222;-39
2022/04/15 00:57:00;;;;;;;0.50;0.50;;;22.40;40.80;;;23.52;34.49;102275.53;5032261;28;20547;-40
2022/04/15 00:59:31;;;;;;;0.60;0.60;;;22.40;40.80;;;23.52;34.64;102280.91;5032529;28;20273;-41
2022/04/15 01:02:01;;;;;;;0.40;0.40;;;22.40;40.90;;;23.52;34.66;102287.09;5052282;28;20198;-38
2022/04/15 01:04:31;;;;;;;0.50;0.50;;;22.40;40.80;;;23.51;34.32;102287.31;5052368;28;20600;-39
2022/04/15 01:07:05;;;;;;;0.60;0.60;;;22.40;40.80;;;23.51;34.68;102279.25;5032713;28;20210;-39
2022/04/15 01:09:35;;;;;;;0.50;0.50;;;22.40;40.80;;;23.52;34.61;102283.59;5038259;28;20218;-40
2022/04/15 01:12:06;;;;;;;0.60;0.60;;;22.40;40.80;;;23.51;34.56;102288.13;5051999;28;20204;-39
2022/04/15 01:14:36;;;;;;;0.50;0.50;;;22.40;40.70;;;23.52;34.50;102287.09;5052082;28;20600;-38
2022/04/15 01:17:04;;;;;;;0.70;0.70;;;22.40;40.70;;;23.51;34.37;102284.63;5051806;28;20245;-39
2022/04/15 01:19:31;;;;;;;0.50;0.50;;;22.40;40.70;;;23.51;34.44;102288.13;5051657;28;20210;-41
2022/04/15 01:22:03;;;;;;;0.57;0.57;;;22.40;40.70;;;23.52;34.21;102297.03;5032150;28;20201;-38
2022/04/15 01:24:32;;;;;;;0.60;0.60;;;22.40;40.70;;;23.52;34.43;102287.09;5032335;28;20206;-38
2022/04/15 01:27:00;;;;;;;0.50;0.50;;;22.30;40.60;;;23.51;34.48;102284.63;5033949;28;20221;-38
2022/04/15 01:29:35;;;;;;;0.70;0.70;;;22.40;40.70;;;23.50;34.53;102291.88;5030777;28;20215;-39
2022/04/15 01:32:03;;;;;;;0.50;0.50;;;22.30;40.70;;;23.50;34.32;102288.38;5051953;28;20546;-39
2022/04/15 01:34:31;;;;;;;0.60;0.60;;;22.30;40.60;;;23.50;34.41;102285.69;5051661;28;20633;-38
2022/04/15 01:37:01;;;;;;;0.50;0.50;;;22.30;40.60;;;23.49;34.60;102295.59;5050848;28;20206;-40
2022/04/15 01:39:31;;;;;;;0.50;0.50;;;22.30;40.60;;;23.48;34.52;102291.28;5038981;28;20827;-39
2022/04/15 01:41:59;;;;;;;0.50;0.50;;;22.40;40.70;;;23.50;34.53;102293.75;5049810;28;20692;-39
2022/04/15 01:44:27;;;;;;;0.60;0.60;;;22.40;40.60;;;23.50;34.46;102299.13;5049708;28;20198;-38
2022/04/15 01:46:54;;;;;;;0.40;0.40;;;22.40;40.70;;;23.50;34.30;102293.75;5051031;28;20228;-38
2022/04/15 01:49:21;;;;;;;0.60;0.60;;;22.30;40.60;;;23.50;34.47;102299.94;5051606;28;20213;-39
2022/04/15 01:51:49;;;;;;;0.60;0.60;;;22.40;40.60;;;23.50;34.39;102304.50;5033089;28;20198;-38
2022/04/15 01:54:16;;;;;;;0.50;0.50;;;22.30;40.60;;;23.49;34.73;102310.91;5038743;28;20198;-38
2022/04/15 01:56:43;;;;;;;0.40;0.40;;;22.30;40.60;;;23.49;34.54;102310.91;5051390;28;20194;-38
2022/04/15 01:59:12;;;;;;;0.40;0.40;;;22.30;40.50;;;23.49;34.50;102325.19;5050237;28;20196;-38
2022/04/15 02:01:39;;;;;;;0.50;0.50;;;22.30;40.50;;;23.50;34.39;102317.94;5044410;28;20646;-37
2022/04/15 02:04:07;;;;;;;0.40;0.40;;;22.30;40.50;;;23.50;34.53;102310.72;5051554;28;20251;-38
2022/04/15 02:06:34;;;;;;;0.50;0.50;;;22.30;40.50;;;23.50;34.50;102312.56;5051163;28;20189;-38
2022/04/15 02:09:01;;;;;;;0.50;0.50;;;22.30;40.50;;;23.48;34.41;102312.81;5051567;28;20224;-39
2022/04/15 02:11:29;;;;;;;0.40;0.40;;;22.30;40.50;;;23.50;34.45;102315.25;5050013;28;20561;-39
2022/04/15 02:13:56;;;;;;;0.50;0.50;;;22.30;40.50;;;23.49;34.60;102313.59;5039024;28;20196;-38
2022/04/15 02:16:25;;;;;;;0.70;0.70;;;22.30;40.50;;;23.49;34.46;102324.34;5035328;28;20198;-39
2022/04/15 02:18:52;;;;;;;0.50;0.50;;;22.30;40.40;;;23.48;34.54;102328.94;5036582;28;20590;-38
2022/04/15 02:21:19;;;;;;;0.40;0.40;;;22.30;40.50;;;23.49;34.39;102332.41;5048881;28;20198;-39
2022/04/15 02:23:46;;;;;;;0.40;0.40;;;22.30;40.50;;;23.48;34.34;102333.47;5055462;28;20277;-38
2022/04/15 02:26:13;;;;;;;0.50;0.50;;;22.30;40.50;;;23.51;34.41;102341.06;5044427;28;20205;-39
2022/04/15 02:28:41;;;;;;;0.47;0.47;;;22.30;40.50;;;23.48;34.46;102333.47;5035386;28;20222;-40
2022/04/15 02:31:08;;;;;;;0.50;0.50;;;22.30;40.40;;;23.49;34.48;102340.47;5035722;28;20191;-38
2022/04/15 02:33:37;;;;;;;0.53;0.53;;;22.30;40.40;;;23.48;34.58;102346.91;5035189;28;20655;-39
2022/04/15 02:36:04;;;;;;;0.43;0.43;;;22.30;40.40;;;23.50;34.26;102336.75;5035961;28;20194;-39
2022/04/15 02:38:32;;;;;;;0.40;0.40;;;22.30;40.40;;;23.48;34.33;102344.22;5035160;28;20218;-39
2022/04/15 02:41:01;;;;;;;0.70;0.70;;;22.30;40.40;;;23.48;34.41;102339.69;5045269;28;20201;-39
2022/04/15 02:43:33;;;;;;;0.40;0.40;;;22.30;40.40;;;23.48;34.20;102344.22;5055036;28;20194;-39
2022/04/15 02:46:04;;;;;;;0.60;0.60;;;22.30;40.40;;;23.49;34.33;102352.06;5053328;28;20256;-39
2022/04/15 02:48:33;;;;;;;0.50;0.50;;;22.30;40.40;;;23.48;34.30;102354.97;5034941;28;20587;-40
2022/04/15 02:51:03;;;;;;;0.50;0.50;;;22.30;40.30;;;23.47;34.35;102353.31;5043637;28;20551;-40
2022/04/15 02:53:31;;;;;;;0.40;0.40;;;22.30;40.30;;;23.49;34.38;102351.22;5051580;28;20186;-40
2022/04/15 02:55:59;;;;;;;0.50;0.50;;;22.30;40.30;;;23.49;34.31;102351.22;5036044;28;20191;-40
2022/04/15 02:58:26;;;;;;;0.40;0.40;;;22.30;40.30;;;23.46;34.28;102347.13;5034404;28;20709;-39
2022/04/15 03:00:53;;;;;;;0.50;0.50;;;22.30;40.30;;;23.49;34.19;102345.84;5043641;28;20218;-39
2022/04/15 03:03:21;;;;;;;0.70;0.50;;;22.30;40.30;;;23.47;34.10;102354.16;5053983;28;20202;-39
2022/04/15 03:05:48;;;;;;;0.50;0.50;;;22.30;40.30;;;23.46;34.21;102355.19;5056299;28;20189;-40
2022/04/15 03:08:17;;;;;;;0.50;0.50;;;22.30;40.20;;;23.47;34.36;102354.16;5057054;28;20698;-40
2022/04/15 03:10:44;;;;;;;0.47;0.47;;;22.30;40.20;;;23.47;34.20;102354.16;5049581;28;20211;-38
2022/04/15 03:13:11;;;;;;;0.40;0.40;;;22.30;40.30;;;23.46;34.32;102352.50;5037722;28;20197;-39
2022/04/15 03:15:38;;;;;;;0.60;0.60;;;22.30;40.20;;;23.47;34.22;102353.31;5036612;28;20195;-39
2022/04/15 03:18:06;;;;;;;0.40;0.40;;;22.30;40.20;;;23.48;34.36;102349.59;5036630;28;20541;-39
2022/04/15 03:20:33;;;;;;;0.43;0.43;;;22.30;40.20;;;23.46;34.12;102352.50;5039964;28;20197;-38
2022/04/15 03:23:00;;;;;;;0.40;0.40;;;22.30;40.20;;;23.46;34.24;102354.38;5034314;28;20203;-38
2022/04/15 03:25:29;;;;;;;0.50;0.50;;;22.30;40.20;;;23.47;34.41;102353.31;5033034;28;20750;-38
2022/04/15 03:27:57;;;;;;;0.53;0.53;;;22.30;40.20;;;23.47;34.16;102347.94;5047101;28;20214;-38
2022/04/15 03:30:24;;;;;;;0.50;0.50;;;22.30;40.10;;;23.47;34.13;102348.78;5049438;28;20574;-39
2022/04/15 03:32:52;;;;;;;0.40;0.40;;;22.30;40.80;;;23.44;34.21;102359.13;5034065;28;20194;-39
2022/04/15 03:35:21;;;;;;;0.60;0.60;;;22.30;40.10;;;23.46;34.04;102355.19;5035162;28;20194;-38
2022/04/15 03:37:49;;;;;;;0.50;0.50;;;22.30;40.00;;;23.46;34.05;102354.38;5033459;28;20226;-38
2022/04/15 03:40:18;;;;;;;0.70;0.70;;;22.30;40.00;;;23.46;34.35;102357.88;5035997;28;20203;-38
2022/04/15 03:42:50;;;;;;;0.40;0.40;;;22.30;40.00;;;23.45;33.97;102350.03;5033917;28;20189;-38
2022/04/15 03:45:19;;;;;;;0.50;0.50;;;22.30;40.00;;;23.44;34.24;102349.22;5034091;28;20190;-38
2022/04/15 03:47:46;;;;;;;0.40;0.40;;;22.30;40.00;;;23.45;34.02;102358.09;5033832;28;20256;-39
2022/04/15 03:50:15;;;;;;;0.60;0.60;;;22.30;40.00;;;23.45;34.32;102360.78;5035775;28;20631;-38
2022/04/15 03:52:46;;;;;;;0.60;0.60;;;22.30;40.00;;;23.45;34.17;102360.78;5052320;28;20711;-39
2022/04/15 03:55:15;;;;;;;0.50;0.50;;;22.30;40.00;;;23.44;34.00;102365.34;5045784;28;20277;-38
2022/04/15 03:57:43;;;;;;;0.50;0.50;;;22.30;40.00;;;23.45;34.13;102363.47;5033290;28;20634;-38
2022/04/15 04:00:17;;;;;;;0.60;0.60;;;22.30;40.00;;;23.43;34.17;102376.31;5034642;28;20582;-38
2022/04/15 04:02:46;;;;;;;0.47;0.47;;;22.30;40.00;;;23.46;34.01;102378.59;5053486;28;20204;-39
2022/04/15 04:05:14;;;;;;;0.40;0.40;;;22.30;40.00;;;23.46;33.98;102378.59;5051897;28;20186;-38
2022/04/15 04:07:42;;;;;;;0.40;0.40;;;22.30;39.90;;;23.45;34.12;102390.38;5047970;28;20687;-39
2022/04/15 04:10:14;;;;;;;0.40;0.40;;;22.30;39.90;;;23.44;34.02;102381.47;5046367;28;20216;-38
2022/04/15 04:12:43;;;;;;;0.50;0.50;;;22.30;39.90;;;23.45;34.24;102385.00;5033408;28;20186;-38
2022/04/15 04:15:13;;;;;;;0.60;0.60;;;22.30;39.90;;;23.44;33.95;102383.31;5033203;28;20567;-38
2022/04/15 04:17:40;;;;;;;0.50;0.50;;;22.30;39.90;;;23.44;34.11;102386.84;5032824;28;20224;-38
2022/04/15 04:20:10;;;;;;;0.70;0.70;;;22.30;39.90;;;23.44;34.11;102388.69;5033616;28;20183;-39
2022/04/15 04:22:39;;;;;;;0.50;0.50;;;22.30;39.90;;;23.42;34.06;102388.94;5051037;28;20202;-38
2022/04/15 04:25:09;;;;;;;0.50;0.50;;;22.30;39.90;;;23.42;34.10;102394.31;5051320;28;20200;-38
2022/04/15 04:27:37;;;;;;;0.47;0.47;;;22.30;39.90;;;23.44;34.12;102391.41;5052667;28;20214;-39
2022/04/15 04:30:06;;;;;;;0.50;0.50;;;22.30;39.90;;;23.45;34.04;102403.81;5052486;28;20675;-39
2022/04/15 04:32:36;;;;;;;0.50;0.50;;;22.30;39.90;;;23.43;34.02;102389.75;5032938;28;20562;-38
2022/04/15 04:35:05;;;;;;;0.47;0.47;;;22.30;39.80;;;23.43;33.98;102389.75;5032681;28;20190;-38
2022/04/15 04:37:33;;;;;;;0.60;0.60;;;22.30;39.80;;;23.42;33.98;102398.84;5040912;28;20225;-38
2022/04/15 04:40:01;;;;;;;0.50;0.50;;;22.30;39.80;;;23.43;33.99;102405.91;5046217;28;20189;-38
2022/04/15 04:42:29;;;;;;;0.60;0.60;;;22.30;39.80;;;23.40;34.08;102400.94;5051696;28;20205;-39
2022/04/15 04:44:57;;;;;;;0.53;0.53;;;22.30;39.80;;;23.41;34.09;102397.22;5052593;28;20247;-38
2022/04/15 04:47:25;;;;;;;0.53;0.53;;;22.30;39.80;;;23.41;34.04;102406.13;5052296;28;20228;-38
2022/04/15 04:49:55;;;;;;;0.47;0.47;;;22.30;39.80;;;23.43;33.81;102405.91;5052498;28;20218;-38
2022/04/15 04:52:23;;;;;;;0.70;0.70;;;22.30;39.80;;;23.43;33.94;102411.28;5048868;28;20197;-39
2022/04/15 04:54:51;;;;;;;0.60;0.60;;;22.30;39.80;;;23.42;33.97;102415.81;5052521;28;20189;-37
2022/04/15 04:57:18;;;;;;;0.70;0.70;;;22.30;39.80;;;23.42;34.03;102420.38;5036135;28;20218;-39
2022/04/15 04:59:51;;;;;;;0.50;0.50;;;22.30;39.80;;;23.42;33.85;102425.75;5031397;28;20195;-38
2022/04/15 05:02:18;;;;;;;0.57;0.57;;;22.30;39.80;;;23.42;34.03;102425.75;5032526;28;20199;-39
2022/04/15 05:04:46;;;;;;;0.60;0.60;;;22.30;39.70;;;23.43;33.98;102424.72;5033371;28;20198;-38
2022/04/15 05:07:14;;;;;;;0.50;0.50;;;22.30;39.70;;;23.41;34.13;102432.19;5051816;28;20216;-36
2022/04/15 05:09:43;;;;;;;0.60;0.60;;;22.20;39.60;;;23.42;33.92;102431.13;5052190;28;20241;-38
2022/04/15 05:12:10;;;;;;;0.50;0.50;;;22.30;39.70;;;23.41;33.83;102437.56;5036702;28;20198;-38
2022/04/15 05:14:38;;;;;;;0.50;0.50;;;22.30;39.70;;;23.42;33.86;102437.31;5033126;28;20187;-38
2022/04/15 05:17:05;;;;;;;0.60;0.60;;;22.20;39.60;;;23.41;33.90;102440.25;5033896;28;20226;-38
2022/04/15 05:19:33;;;;;;;0.50;0.50;;;22.30;39.70;;;23.42;33.95;102441.88;5041066;28;20204;-38
2022/04/15 05:22:00;;;;;;;0.50;0.50;;;22.30;39.70;;;23.42;33.88;102439.19;5042932;28;20190;-39
2022/04/15 05:24:29;;;;;;;0.53;0.53;;;22.30;39.70;;;23.41;34.04;102449.13;5036995;28;20234;-40
2022/04/15 05:26:57;;;;;;;0.60;0.60;;;22.30;39.70;;;23.42;33.91;102444.56;5035732;28;20215;-40
2022/04/15 05:29:24;;;;;;;0.40;0.40;;;22.20;39.60;;;23.40;33.88;102449.34;5048610;28;20212;-39
2022/04/15 05:31:52;;;;;;;0.70;0.70;;;22.30;39.70;;;23.42;34.01;102452.63;5040305;28;20202;-39
2022/04/15 05:34:19;;;;;;;0.50;0.50;;;22.30;39.70;;;23.41;34.02;102456.38;5032169;28;20929;-38
2022/04/15 05:36:47;;;;;;;0.50;0.50;;;22.30;39.70;;;23.41;34.00;102453.69;5031640;28;20201;-40
2022/04/15 05:39:14;;;;;;;0.50;0.50;;;22.30;39.70;;;23.41;33.95;102459.06;5032154;28;20195;-38
2022/04/15 05:41:43;;;;;;;0.50;0.50;;;22.20;39.60;;;23.39;33.89;102455.78;5043284;28;20709;-39
2022/04/15 05:44:13;;;;;;;0.50;0.50;;;22.30;39.70;;;23.41;33.90;102461.75;5044551;28;20201;-38
2022/04/15 05:46:42;;;;;;;0.40;0.40;;;22.20;39.60;;;23.41;33.66;102461.75;5032315;28;20547;-38
2022/04/15 05:49:13;;;;;;;0.50;0.50;;;22.30;39.70;;;23.40;33.97;102460.09;5046008;28;20191;-37
2022/04/15 05:51:42;;;;;;;0.50;0.50;;;22.20;39.60;;;23.39;34.00;102464.63;5042729;28;20587;-38
2022/04/15 05:54:10;;;;;;;0.50;0.50;;;22.30;39.70;;;23.41;33.77;102467.13;5051886;28;20674;-37
2022/04/15 05:56:38;;;;;;;0.40;0.40;;;22.20;40.20;;;23.40;34.07;102476.22;5051501;28;20181;-36
2022/04/15 05:59:07;;;;;;;0.50;0.50;;;22.20;39.60;;;23.40;33.79;102481.59;5051700;28;20190;-39
2022/04/15 06:01:34;;;;;;;0.50;0.50;;;22.20;39.60;;;23.40;33.93;102484.28;5049440;28;20198;-40
2022/04/15 06:04:02;;;;;;;0.50;0.50;;;22.30;39.90;;;23.39;33.96;102488.03;5038601;28;20205;-39
2022/04/15 06:06:29;;;;;;;0.50;0.50;;;22.20;39.60;;;23.40;33.80;102487.78;5031849;28;20182;-39
2022/04/15 06:08:56;;;;;;;0.50;0.50;;;22.20;39.60;;;23.41;33.78;102497.53;5031664;28;20194;-40
2022/04/15 06:11:25;;;;;;;0.70;0.70;;;22.20;39.50;;;23.40;33.77;102503.09;5039786;28;20214;-39
2022/04/15 06:13:52;;;;;;;0.50;0.50;;;22.20;39.50;;;23.39;33.88;102506.84;5051848;28;20226;-39
2022/04/15 06:16:21;;;;;;;0.70;0.70;;;22.30;39.70;;;23.39;33.89;102506.84;5051324;28;20319;-39
2022/04/15 06:18:49;;;;;;;0.40;0.40;;;22.20;39.60;;;23.39;33.90;102512.22;5035614;28;20256;-40
2022/04/15 06:21:36;;;;;;;0.60;0.60;;;22.20;39.60;;;23.38;33.89;102514.06;5033522;28;20277;-40
2022/04/15 06:24:06;;;;;;;0.40;0.40;;;22.20;39.60;;;23.39;33.96;102517.59;5031801;28;20208;-38
2022/04/15 06:26:34;;;;;;;0.63;0.63;;;22.20;39.60;;;23.40;33.80;102519.22;5031303;28;20198;-39
2022/04/15 06:29:01;;;;;;;0.60;0.60;;;22.20;39.50;;;23.39;33.82;102528.34;5032007;28;20554;-39
2022/04/15 06:31:30;;;;;;;0.60;0.60;;;22.20;39.60;;;23.39;33.88;102528.34;5041097;28;20220;-40
2022/04/15 06:33:57;;;;;;;0.70;0.70;;;22.30;39.60;;;23.39;34.01;102533.72;5049907;28;20297;-39
2022/04/15 06:36:24;;;;;;;0.53;0.53;;;22.30;39.70;;;23.38;33.92;102538.28;5031823;28;20198;-39
2022/04/15 06:38:52;;;;;;;0.90;0.70;;;22.20;39.60;;;23.38;33.99;102534.75;5031696;28;20215;-39
2022/04/15 06:41:19;;;;;;;0.50;0.50;;;22.20;39.60;;;23.38;33.92;102543.66;5031986;28;20187;-38
2022/04/15 06:43:46;;;;;;;0.80;0.73;;;22.20;39.60;;;23.39;33.90;102536.41;5032107;28;20202;-40
2022/04/15 06:46:14;;;;;;;0.50;0.50;;;22.30;39.70;;;23.38;34.36;102549.03;5042928;28;20198;-39
2022/04/15 06:48:43;;;;;;;0.70;0.70;;;22.20;39.60;;;23.37;33.92;102550.03;5051680;28;20213;-40
2022/04/15 06:51:10;;;;;;;0.60;0.60;;;22.20;39.60;;;23.38;34.00;102553.56;5043271;28;20210;-40
2022/04/15 06:53:37;;;;;;;0.50;0.50;;;22.30;39.70;;;23.40;33.92;102562.22;5031812;28;20193;-40
2022/04/15 06:56:05;;;;;;;0.70;0.70;;;22.20;39.60;;;23.40;33.92;102562.22;5034830;28;20194;-40
2022/04/15 06:58:32;;;;;;;0.53;0.53;;;22.30;39.70;;;23.39;33.90;102563.28;5032069;28;20234;-40
2022/04/15 07:00:59;;;;;;;0.40;0.40;;;22.20;39.60;;;23.39;33.91;102560.59;5051155;28;20186;-40
2022/04/15 07:03:27;;;;;;;0.57;0.57;;;22.30;39.70;;;23.38;34.12;102567.00;5054732;28;20186;-39
2022/04/15 07:05:55;;;;;;;0.60;0.60;;;22.30;39.70;;;23.40;34.16;102567.63;5055060;28;20197;-39
2022/04/15 07:08:23;;;;;;;0.70;0.70;;;22.20;39.60;;;23.37;33.90;102574.25;5046243;28;20307;-40
2022/04/15 07:10:50;;;;;;;0.50;0.50;;;22.20;39.60;;;23.38;33.98;102575.06;5034526;28;20297;-40
2022/04/15 07:13:17;;;;;;;0.50;0.50;;;22.30;39.70;;;23.39;33.86;102571.34;5047326;28;20197;-40
2022/04/15 07:15:45;;;;;;;0.50;0.50;;;22.20;39.60;;;23.38;33.91;102575.91;5054534;28;20185;-40
2022/04/15 07:18:12;;;;;;;0.60;0.60;;;22.30;39.70;;;23.38;34.04;102569.69;5054177;28;20609;-40
2022/04/15 07:20:40;;;;;;;0.70;0.70;;;22.30;39.70;;;23.39;34.09;102571.34;5053274;28;20190;-39
2022/04/15 07:23:08;;;;;;;0.50;0.50;;;22.20;39.60;;;23.37;33.89;102568.88;5035820;28;20659;-40
2022/04/15 07:25:36;;;;;;;0.47;0.47;;;22.30;39.70;;;23.37;34.00;102582.31;5034467;28;20249;-40
2022/04/15 07:28:04;;;;;;;0.57;0.57;;;22.30;39.70;;;23.37;33.99;102584.16;5034103;28;20213;-40
2022/04/15 07:30:32;;;;;;;0.50;0.50;;;22.30;39.70;;;23.37;34.03;102581.47;5034126;28;20301;-40
2022/04/15 07:33:01;;;;;;;0.60;0.60;;;22.30;39.70;;;23.37;34.04;102584.16;5033033;28;20226;-40
2022/04/15 07:35:29;;;;;;;0.57;0.57;;;22.20;39.50;;;23.36;34.20;102583.34;5034198;28;20205;-40
2022/04/15 07:37:56;;;;;;;0.60;0.60;;;22.30;39.60;;;23.36;33.92;102582.53;5048451;28;20297;-41
2022/04/15 07:40:28;;;;;;;0.60;0.60;;;22.30;39.60;;;23.36;34.03;102586.06;5052543;28;20198;-41
2022/04/15 07:42:57;;;;;;;0.50;0.50;;;22.20;39.50;;;23.37;33.94;102589.53;5034663;28;20194;-40
2022/04/15 07:45:25;;;;;;;0.57;0.57;;;22.20;39.50;;;23.37;33.78;102594.91;5036130;28;20191;-40
2022/04/15 07:47:52;;;;;;;0.60;0.60;;;22.30;39.60;;;23.36;33.73;102596.81;5042609;28;20215;-40
2022/04/15 07:50:25;;;;;;;0.60;0.60;;;22.20;39.50;;;23.34;34.02;102592.66;5037557;28;20183;-40
2022/04/15 07:52:56;;;;;;;0.57;0.57;;;22.20;39.50;;;23.36;33.90;102602.19;5055842;28;20220;-40
2022/04/15 07:55:25;;;;;;;0.70;0.70;;;22.20;39.50;;;23.35;33.99;102599.69;5053057;28;20190;-39
2022/04/15 07:57:53;;;;;;;0.60;0.60;;;22.20;39.50;;;23.36;34.02;102604.03;5052978;28;20309;-40
2022/04/15 08:00:22;;;;;;;0.60;0.60;;;22.20;39.50;;;23.35;33.90;102597.81;5056011;28;20212;-40
2022/04/15 08:02:49;;;;;;;0.47;0.47;;;22.20;39.50;;;23.36;33.84;102604.88;5037086;28;20243;-47
2022/04/15 08:05:16;;;;;;;0.67;0.67;;;22.20;39.50;;;23.37;33.91;102616.41;5043086;28;20666;-41
2022/04/15 08:07:43;;;;;;;0.50;0.50;;;22.20;39.50;;;23.36;33.92;102614.78;5054840;28;20584;-40
2022/04/15 08:10:11;;;;;;;0.60;0.60;;;22.20;39.50;;;23.35;33.89;102608.56;5053588;28;20194;-40
2022/04/15 08:12:39;;;;;;;0.60;0.60;;;22.20;40.10;;;23.35;33.90;102616.66;5051470;28;20301;-39
2022/04/15 08:15:07;;;;;;;0.57;0.57;;;22.20;39.40;;;23.35;33.92;102613.94;5053402;28;20650;-39
2022/04/15 08:17:35;;;;;;;0.60;0.60;;;22.20;39.50;;;23.36;33.92;102620.16;5053263;28;20214;-41
2022/04/15 08:20:04;;;;;;;0.77;0.77;;;22.20;39.40;;;23.35;33.70;102623.88;5038207;28;20202;-39
2022/04/15 08:22:35;;;;;;;0.60;0.60;;;22.20;39.40;;;23.35;34.03;102630.09;5033215;28;20191;-39
2022/04/15 08:25:04;;;;;;;0.70;0.70;;;22.20;39.40;;;23.36;33.91;102628.22;5033321;28;20261;-39
2022/04/15 08:27:32;;;;;;;0.70;0.70;;;22.20;39.40;;;23.34;33.91;102632.97;5032961;28;20672;-39
2022/04/15 08:30:01;;;;;;;0.60;0.60;;;22.20;39.40;;;23.36;33.90;102636.28;5049681;28;20192;-39
2022/04/15 08:32:33;;;;;;;0.70;0.70;;;22.20;39.50;;;23.36;33.83;102638.97;5052544;28;20249;-39
2022/04/15 08:35:11;;;;;;;0.70;0.70;;;22.20;39.40;;;23.35;33.76;102645.38;5052908;28;20264;-38
2022/04/15 08:37:39;;;;;;;0.50;0.50;;;22.20;39.40;;;23.34;33.82;102644.50;5052684;28;20585;-40
2022/04/15 08:40:09;;;;;;;0.60;0.60;;;22.20;39.40;;;23.34;34.08;102649.88;5043210;28;20193;-40
2022/04/15 08:42:36;;;;;;;0.60;0.60;;;22.20;39.40;;;23.34;33.72;102644.50;5032805;28;20206;-39
2022/04/15 08:45:10;;;;;;;0.57;0.57;;;22.20;39.40;;;23.34;33.74;102649.09;5033944;28;20194;-38
2022/04/15 08:47:37;;;;;;;0.90;0.90;;;22.20;39.30;;;23.34;33.68;102657.16;5032660;28;20218;-39
2022/04/15 08:50:07;;;;;;;0.40;0.40;;;22.20;39.30;;;23.32;33.66;102656.53;5032649;28;20191;-39
2022/04/15 08:52:34;;;;;;;0.60;0.60;;;22.20;39.30;;;23.33;33.83;102661.69;5047033;28;20296;-39
2022/04/15 08:55:02;;;;;;;0.63;0.63;;;22.20;39.30;;;23.34;33.75;102665.22;5032946;28;20281;-38
2022/04/15 08:57:29;;;;;;;0.70;0.70;;;22.20;39.40;;;23.33;33.77;102668.94;5039919;28;20578;-38
2022/04/15 08:59:57;;;;;;;0.70;0.70;;;22.20;39.30;;;23.33;33.77;102663.56;5050506;28;20194;-38
2022/04/15 09:02:35;;;;;;;0.60;0.60;;;22.20;39.30;;;23.31;33.82;102668.31;5038690;28;20294;-39
2022/04/15 09:05:10;;;;;;;0.70;0.70;;;22.20;39.30;;;23.33;33.62;102666.25;5032628;28;20185;-40
2022/04/15 09:07:37;;;;;;;0.67;0.67;;;22.20;39.20;;;23.33;33.75;102671.63;5032318;28;20237;-40
2022/04/15 09:10:07;;;;;;;0.60;0.60;;;22.20;39.20;;;23.33;33.72;102674.31;5032679;28;20209;-40
2022/04/15 09:12:36;;;;;;;0.70;0.70;;;22.20;39.20;;;23.32;33.69;102678.06;5032645;28;20276;-38
2022/04/15 09:15:12;;;;;;;0.80;0.80;;;22.20;39.20;;;23.31;33.84;102679.06;5032625;28;20241;-38
2022/04/15 09:17:54;;;;;;;0.77;0.77;;;22.20;39.20;;;23.34;33.67;102684.84;5032209;28;20228;-40
2022/04/15 09:20:22;;;;;;;0.77;0.77;;;22.20;39.20;;;23.32;33.62;102689.59;5032452;28;20183;-39
2022/04/15 09:22:55;;;;;;;0.70;0.70;;;22.20;39.20;;;23.31;33.82;102698.72;5031010;28;20198;-38
2022/04/15 09:25:29;;;;;;;0.70;0.70;;;22.20;39.20;;;23.33;33.65;102701.19;5032823;28;20198;-39
2022/04/15 09:27:58;;;;;;;0.50;0.50;;;22.20;39.20;;;23.32;33.81;102694.97;5031786;28;20657;-39
2022/04/15 09:30:35;;;;;;;0.70;0.70;;;22.20;39.20;;;23.31;33.71;102698.72;5032110;28;20252;-39
2022/04/15 09:33:04;;;;;;;0.70;0.70;;;22.20;39.20;;;23.33;33.71;102701.19;5042002;28;20202;-40
2022/04/15 09:35:32;;;;;;;0.60;0.60;;;22.20;39.10;;;23.32;33.77;102699.56;5033087;28;20273;-38
2022/04/15 09:38:03;;;;;;;0.60;0.60;;;22.20;39.10;;;23.32;33.69;102704.94;5033270;28;20559;-40
2022/04/15 09:40:35;;;;;;;0.67;0.67;;;22.20;39.10;;;23.32;33.74;102710.31;5034106;28;20167;-39
2022/04/15 09:43:06;;;;;;;1.07;0.70;;;22.20;39.20;;;23.31;33.61;102708.63;5048725;28;20193;-40
2022/04/15 09:45:36;;;;;;;0.67;0.67;;;22.20;39.10;;;23.33;33.85;102711.94;5052545;28;20259;-38
2022/04/15 09:48:08;;;;;;;0.73;0.73;;;22.20;39.20;;;23.32;33.63;102716.47;5051398;28;20216;-39
2022/04/15 09:50:38;;;;;;;0.70;0.70;;;22.20;39.10;;;23.32;33.74;102715.69;5032271;28;20273;-39
2022/04/15 09:53:09;;;;;;;0.97;0.97;;;22.20;39.10;;;23.32;33.72;102715.69;5046849;28;20266;-39
2022/04/15 09:55:40;;;;;;;0.60;0.60;;;22.20;39.10;;;23.33;33.74;102718.16;5051582;28;20198;-39
2022/04/15 09:58:11;;;;;;;0.70;0.70;;;22.20;39.10;;;23.31;33.55;102724.78;5050122;28;20210;-39
2022/04/15 10:00:40;;;;;;;0.80;0.80;;;22.20;39.10;;;23.33;33.63;102728.06;5031988;28;20201;-39
2022/04/15 10:03:11;;;;;;;0.80;0.80;;;22.20;39.10;;;23.32;33.64;102726.44;5049233;28;20243;-39
2022/04/15 10:05:41;;;;;;;0.67;0.67;;;22.20;39.00;;;23.30;33.60;102729.31;5048572;28;20285;-39
2022/04/15 10:08:10;;;;;;;0.70;0.70;;;22.20;39.00;;;23.32;33.68;102729.13;5051349;28;20225;-38
2022/04/15 10:10:38;;;;;;;0.70;0.70;;;22.20;39.00;;;23.32;33.64;102732.63;5051628;28;20208;-40
2022/04/15 10:13:06;;;;;;;0.90;0.90;;;22.20;39.00;;;23.32;33.65;102727.22;5034392;28;20754;-40
2022/04/15 10:15:38;;;;;;;0.70;0.70;;;22.20;39.00;;;23.32;33.65;102731.81;5040993;28;20200;-39
2022/04/15 10:18:08;;;;;;;0.80;0.80;;;22.20;39.00;;;23.32;33.56;102731.81;5042802;28;20224;-40